Time;durP1;ratioP1;P1;durP2;ratioP2;P2;SDS_P1;SDS_P2;PMS_P1;PMS_P2;Temp;Humidity;BMP_temperature;BMP_pressure;BME280_temperature;BME280_humidity;BME280_pressure;Samples;Min_cycle;Max_cycle;Signal;HPM_P1;HPM_P2
2022/10/13 00:02:24;;;;;;;28.37;12.17;;;;;;;-141.28;100.00;50593.22;5130809;28;20195;-80
2022/10/13 00:04:53;;;;;;;19.43;11.97;;;;;;;-141.28;100.00;50581.47;5122972;28;20199;-79
2022/10/13 00:07:21;;;;;;;19.33;12.57;;;;;;;-141.28;100.00;50548.09;5118931;28;20234;-78
2022/10/13 00:09:50;;;;;;;18.53;12.47;;;;;;;-141.28;100.00;50463.69;5133219;28;20206;-79
2022/10/13 00:12:17;;;;;;;18.50;12.50;;;;;;;-141.28;100.00;50601.09;5129549;28;20281;-78
2022/10/13 00:14:44;;;;;;;20.77;11.77;;;;;;;-141.28;100.00;50569.69;5132401;27;20451;-78
2022/10/13 00:17:12;;;;;;;22.63;11.73;;;;;;;-141.28;100.00;50624.63;5133178;28;20220;-76
2022/10/13 00:19:39;;;;;;;20.33;11.30;;;;;;;-141.28;100.00;50620.72;5117191;28;20206;-78
2022/10/13 00:22:06;;;;;;;18.53;11.07;;;;;;;-141.28;100.00;50605.00;5123582;28;20202;-79
2022/10/13 00:24:34;;;;;;;20.57;11.53;;;;;;;-141.28;100.00;50608.94;5132655;27;20233;-77
2022/10/13 00:27:01;;;;;;;17.20;11.13;;;;;;;-141.28;100.00;50577.53;5132481;28;20676;-80
2022/10/13 00:29:30;;;;;;;17.33;11.40;;;;;;;-141.28;100.00;50599.13;5131218;28;20443;-78
2022/10/13 00:31:57;;;;;;;20.23;10.50;;;;;;;-141.28;100.00;50608.94;5132148;28;20198;-76
2022/10/13 00:34:24;;;;;;;15.60;10.63;;;;;;;-141.28;100.00;50593.22;5133854;28;20218;-76
2022/10/13 00:36:50;;;;;;;18.63;10.80;;;;;;;-141.28;100.00;50620.72;5133938;28;20190;-79
2022/10/13 00:39:18;;;;;;;16.00;10.63;;;;;;;-141.28;100.00;50585.38;5133098;28;20206;-75
2022/10/13 00:41:46;;;;;;;17.40;10.40;;;;;;;-141.28;100.00;50599.13;5132206;28;20191;-79
2022/10/13 00:44:50;;;;;;;15.47;10.43;;;;;;;-141.28;100.00;50546.13;5132346;28;20707;-75
2022/10/13 00:47:18;;;;;;;19.90;10.20;;;;;;;-141.28;100.00;50381.25;5126406;28;20606;-77
2022/10/13 00:49:45;;;;;;;17.37;10.23;;;;;;;-141.28;100.00;50432.28;5135311;28;20194;-77
2022/10/13 00:52:14;;;;;;;18.13;10.63;;;;;;;-141.28;100.00;50426.38;5132147;28;20589;-76
2022/10/13 00:54:41;;;;;;;32.37;12.83;;;;;;;-141.28;100.00;50504.91;5132174;28;20202;-77
2022/10/13 00:57:10;;;;;;;27.77;12.37;;;;;;;-141.28;100.00;50514.72;5132503;27;20521;-76
2022/10/13 00:59:40;;;;;;;29.50;12.50;;;;;;;-141.28;100.00;50446.03;5128958;27;20284;-77
2022/10/13 01:02:08;;;;;;;32.20;12.43;;;;;;;-141.28;100.00;50522.56;5135990;27;20447;-78
2022/10/13 01:04:40;;;;;;;24.03;12.80;;;;;;;-141.28;100.00;50583.41;5135579;27;20536;-79
2022/10/13 01:07:09;;;;;;;23.37;12.30;;;;;;;-141.28;100.00;50593.22;5136189;27;20237;-78
2022/10/13 01:09:38;;;;;;;22.03;11.83;;;;;;;-141.28;100.00;50585.38;5136188;27;20194;-79
2022/10/13 01:12:21;;;;;;;22.90;12.97;;;;;;;-141.28;100.00;50589.31;5121877;27;20497;-79
2022/10/13 01:14:56;;;;;;;20.50;12.30;;;;;;;-141.28;100.00;50597.16;5135678;27;20198;-77
2022/10/13 01:17:33;;;;;;;22.90;12.50;;;;;;;-141.28;100.00;50550.06;5135630;27;20635;-80
2022/10/13 01:20:37;;;;;;;25.07;14.50;;;;;;;-141.28;100.00;50542.19;5135778;27;20679;-78
2022/10/13 01:23:34;;;;;;;22.60;14.57;;;;;;;-141.28;100.00;50491.16;5126461;27;20482;-80
2022/10/13 01:26:28;;;;;;;21.50;14.10;;;;;;;-141.28;100.00;50463.69;5135436;27;20217;-78
2022/10/13 01:29:13;;;;;;;25.20;14.07;;;;;;;-141.28;100.00;50424.44;5135464;27;20207;-78
2022/10/13 01:31:49;;;;;;;19.27;13.70;;;;;;;-141.28;100.00;50463.69;5135323;27;20462;-77
2022/10/13 01:34:21;;;;;;;23.83;13.77;;;;;;;-141.28;100.00;50522.56;5135130;27;20588;-77
2022/10/13 01:36:56;;;;;;;19.33;13.87;;;;;;;-141.28;100.00;50563.78;5135026;27;20476;-74
2022/10/13 01:39:28;;;;;;;23.50;15.80;;;;;;;-141.28;100.00;50608.94;5135915;27;20208;-75
2022/10/13 01:42:04;;;;;;;23.20;13.90;;;;;;;-141.28;100.00;50614.81;5134584;27;20954;-76
2022/10/13 01:44:36;;;;;;;19.97;14.07;;;;;;;-141.28;100.00;50640.34;5135114;27;21002;-78
2022/10/13 01:47:07;;;;;;;19.37;14.13;;;;;;;-141.28;100.00;50642.31;5135432;27;20443;-76
2022/10/13 01:49:35;;;;;;;21.63;13.87;;;;;;;-141.28;100.00;50711.00;5135503;27;20440;-78
2022/10/13 01:52:09;;;;;;;23.47;14.37;;;;;;;-141.28;100.00;50724.75;5135089;27;20202;-79
2022/10/13 01:54:36;;;;;;;19.90;13.83;;;;;;;-141.28;100.00;50738.50;5134678;27;20206;-77
2022/10/13 01:57:03;;;;;;;22.90;14.80;;;;;;;-141.28;100.00;50750.28;5123713;27;20257;-76
2022/10/13 01:59:37;;;;;;;19.00;12.50;;;;;;;-141.28;100.00;50750.28;5121140;27;20965;-80
2022/10/13 02:02:14;;;;;;;23.03;13.13;;;;;;;-141.28;100.00;50714.94;5134928;27;20949;-74
2022/10/13 02:04:52;;;;;;;23.83;13.83;;;;;;;-141.28;100.00;50703.16;5134775;27;20562;-76
2022/10/13 02:07:27;;;;;;;18.53;13.67;;;;;;;-141.28;100.00;50687.47;5135442;27;20936;-77
2022/10/13 02:10:02;;;;;;;22.57;13.83;;;;;;;-141.28;100.00;50683.53;5135013;27;20432;-81
2022/10/13 02:12:34;;;;;;;25.30;14.17;;;;;;;-141.28;100.00;50675.69;5135421;27;20442;-76
2022/10/13 02:15:02;;;;;;;21.27;13.30;;;;;;;-141.28;100.00;50711.00;5138376;27;20449;-76
2022/10/13 02:17:31;;;;;;;19.53;13.30;;;;;;;-141.28;100.00;50349.84;5138468;27;20214;-75
2022/10/13 02:19:59;;;;;;;28.40;15.30;;;;;;;-141.28;100.00;50675.69;5139097;27;20451;-75
2022/10/13 02:22:31;;;;;;;33.40;16.27;;;;;;;-141.28;100.00;50681.56;5143054;27;20199;-75
2022/10/13 02:24:58;;;;;;;31.60;20.07;;;;;;;-141.28;100.00;50718.88;5143311;27;21085;-73
2022/10/13 02:27:26;;;;;;;39.67;22.87;;;;;;;-141.28;100.00;50758.13;5149343;27;20452;-75
2022/10/13 02:29:55;;;;;;;33.73;21.80;;;;;;;-141.28;100.00;50791.50;5141154;27;20440;-79
2022/10/13 02:32:23;;;;;;;28.67;20.87;;;;;;;-141.28;100.00;50803.28;5137435;27;20448;-75
2022/10/13 02:34:51;;;;;;;30.40;17.43;;;;;;;-141.28;100.00;50834.69;5143542;27;20447;-75
2022/10/13 02:37:18;;;;;;;23.77;16.37;;;;;;;-141.28;100.00;50820.94;5144332;27;20439;-76
2022/10/13 02:39:45;;;;;;;23.40;16.13;;;;;;;-141.28;100.00;50809.16;5136008;27;20444;-75
2022/10/13 02:42:12;;;;;;;25.40;15.67;;;;;;;-141.28;100.00;50848.44;5134175;27;20451;-79
2022/10/13 02:44:39;;;;;;;30.50;15.33;;;;;;;-141.28;100.00;50663.91;5133855;27;20494;-76
2022/10/13 02:47:07;;;;;;;20.60;13.57;;;;;;;-141.28;100.00;50856.28;5134043;27;20576;-76
2022/10/13 02:49:34;;;;;;;22.60;13.63;;;;;;;-141.28;100.00;50879.84;5133553;27;20439;-79
2022/10/13 02:52:03;;;;;;;30.40;13.67;;;;;;;-141.28;100.00;50848.44;5133666;27;20450;-76
2022/10/13 02:54:30;;;;;;;22.17;14.00;;;;;;;-141.28;100.00;50866.09;5133490;27;20462;-80
2022/10/13 02:56:59;;;;;;;29.93;15.40;;;;;;;-141.28;100.00;50785.59;5115083;27;20500;-80
2022/10/13 02:59:26;;;;;;;26.53;14.57;;;;;;;-141.28;100.00;50868.06;5133974;27;20447;-76
2022/10/13 03:01:53;;;;;;;24.20;14.90;;;;;;;-141.28;100.00;50828.78;5134088;27;20455;-77
2022/10/13 03:04:20;;;;;;;24.97;14.87;;;;;;;-141.28;100.00;50844.50;5134037;27;20510;-79
2022/10/13 03:06:46;;;;;;;27.20;15.57;;;;;;;-141.28;100.00;50765.97;5135783;27;20510;-75
2022/10/13 03:09:17;;;;;;;25.00;15.47;;;;;;;-141.28;100.00;50762.06;5140601;27;20984;-76
2022/10/13 03:11:45;;;;;;;22.57;14.03;;;;;;;-141.28;100.00;50705.13;5133098;27;20447;-74
2022/10/13 03:14:14;;;;;;;23.97;16.17;;;;;;;-141.28;100.00;50714.94;5139937;27;20446;-74
2022/10/13 03:16:41;;;;;;;23.00;14.77;;;;;;;-141.28;100.00;50652.13;5142432;27;20877;-75
2022/10/13 03:19:08;;;;;;;30.87;14.70;;;;;;;-141.28;100.00;50483.31;5140949;27;20822;-77
2022/10/13 03:21:45;;;;;;;31.90;15.57;;;;;;;-141.28;100.00;50585.38;5139590;27;20448;-78
2022/10/13 03:24:12;;;;;;;21.27;15.10;;;;;;;-141.28;100.00;50561.81;5136061;27;21008;-76
2022/10/13 03:26:40;;;;;;;29.30;16.13;;;;;;;-141.28;100.00;50557.91;5133126;27;20444;-78
2022/10/13 03:29:07;;;;;;;28.57;15.57;;;;;;;-141.28;100.00;50546.13;5133226;27;20450;-77
2022/10/13 03:31:35;;;;;;;24.97;15.27;;;;;;;-141.28;100.00;50546.13;5133254;27;20448;-76
2022/10/13 03:34:03;;;;;;;23.00;15.17;;;;;;;-141.28;100.00;50510.78;5133093;27;20969;-78
2022/10/13 03:36:30;;;;;;;22.60;14.23;;;;;;;-141.28;100.00;50530.41;5132460;27;21015;-75
2022/10/13 03:38:57;;;;;;;24.50;14.53;;;;;;;-141.28;100.00;50483.31;5133761;27;20436;-77
2022/10/13 03:41:24;;;;;;;23.77;14.83;;;;;;;-141.28;100.00;50500.97;5133434;27;20448;-78
2022/10/13 03:43:53;;;;;;;25.23;14.40;;;;;;;-141.28;100.00;50522.56;5133654;27;20234;-77
2022/10/13 03:46:21;;;;;;;24.53;15.70;;;;;;;-141.28;100.00;50522.56;5138274;27;20472;-75
2022/10/13 03:48:48;;;;;;;30.73;15.43;;;;;;;-141.28;100.00;50526.50;5133842;27;20451;-76
2022/10/13 03:51:17;;;;;;;24.83;14.67;;;;;;;-141.28;100.00;50508.81;5133282;27;20451;-78
2022/10/13 03:53:45;;;;;;;28.37;16.23;;;;;;;-141.28;100.00;50499.00;5137422;27;20444;-75
2022/10/13 03:56:15;;;;;;;30.97;16.73;;;;;;;-141.28;100.00;50538.28;5150458;27;20452;-75
2022/10/13 03:58:43;;;;;;;27.83;17.20;;;;;;;-141.28;100.00;50524.53;5118034;27;20440;-76
2022/10/13 04:01:15;;;;;;;28.70;16.23;;;;;;;-141.28;100.00;50502.94;5133533;27;20736;-80
2022/10/13 04:03:42;;;;;;;28.83;17.47;;;;;;;-141.28;100.00;50518.66;5133327;28;21034;-77
2022/10/13 04:06:10;;;;;;;39.17;16.93;;;;;;;-141.28;100.00;50491.16;5133238;28;20474;-75
2022/10/13 04:08:38;;;;;;;29.50;18.33;;;;;;;-141.28;100.00;50522.56;5133566;28;20822;-76
2022/10/13 04:11:07;;;;;;;29.77;17.87;;;;;;;-141.28;100.00;50526.50;5132865;28;20439;-81
2022/10/13 04:13:35;;;;;;;26.60;19.20;;;;;;;-141.28;100.00;50516.69;5132584;28;20435;-78
2022/10/13 04:16:03;;;;;;;27.33;17.90;;;;;;;-141.28;100.00;50522.56;5132393;28;20447;-75
2022/10/13 04:18:31;;;;;;;34.63;18.90;;;;;;;-141.28;100.00;50506.88;5132591;28;20444;-80
2022/10/13 04:20:59;;;;;;;29.63;18.60;;;;;;;-141.28;100.00;50459.75;5132827;28;20460;-81
2022/10/13 04:23:26;;;;;;;42.43;19.97;;;;;;;-141.28;100.00;50455.84;5101111;28;20902;-76
2022/10/13 04:25:55;;;;;;;42.30;18.43;;;;;;;-141.28;100.00;50455.84;5132673;28;20483;-76
2022/10/13 04:28:23;;;;;;;34.77;19.63;;;;;;;-141.28;100.00;50430.31;5134657;28;20733;-74
2022/10/13 04:30:54;;;;;;;35.43;17.73;;;;;;;-141.28;100.00;50440.13;5133029;28;20436;-78
2022/10/13 04:33:21;;;;;;;44.00;20.00;;;;;;;-141.28;100.00;50406.75;5119586;27;20825;-77
2022/10/13 04:35:49;;;;;;;29.53;16.90;;;;;;;-141.28;100.00;50120.19;5136879;27;20528;-75
2022/10/13 04:38:17;;;;;;;33.60;18.47;;;;;;;-141.28;100.00;50404.81;5132184;27;20954;-79
2022/10/13 04:40:44;;;;;;;47.40;18.97;;;;;;;-141.28;100.00;50314.50;5128763;27;20435;-76
2022/10/13 04:43:11;;;;;;;40.20;18.10;;;;;;;-141.28;100.00;50424.44;5137890;27;20439;-76
2022/10/13 04:45:38;;;;;;;39.07;17.43;;;;;;;-141.28;100.00;50434.25;5139742;27;20486;-77
2022/10/13 04:48:06;;;;;;;30.43;16.60;;;;;;;-141.28;100.00;50444.06;5139533;27;20874;-76
2022/10/13 04:50:33;;;;;;;31.13;16.47;;;;;;;-141.28;100.00;50444.06;5140069;27;20452;-77
2022/10/13 04:53:02;;;;;;;23.93;15.70;;;;;;;-141.28;100.00;50428.34;5138360;27;20496;-78
2022/10/13 04:55:29;;;;;;;23.03;14.47;;;;;;;-141.28;100.00;50381.25;5137054;27;20450;-78
2022/10/13 04:57:56;;;;;;;22.13;14.47;;;;;;;-141.28;100.00;50440.13;5136868;27;20455;-80
2022/10/13 05:00:22;;;;;;;23.87;14.77;;;;;;;-141.28;100.00;50438.16;5136508;27;20435;-76
2022/10/13 05:02:49;;;;;;;24.33;15.30;;;;;;;-141.28;100.00;50391.06;5122190;27;20525;-77
2022/10/13 05:05:16;;;;;;;24.83;15.20;;;;;;;-141.28;100.00;50408.72;5136468;27;20494;-79
2022/10/13 05:07:43;;;;;;;22.70;15.17;;;;;;;-141.28;100.00;50393.03;5135581;27;20467;-76
2022/10/13 05:10:11;;;;;;;23.47;15.73;;;;;;;-141.28;100.00;50349.84;5135947;27;20451;-78
2022/10/13 05:12:38;;;;;;;28.63;16.90;;;;;;;-141.28;100.00;50294.88;5122940;27;20959;-77
2022/10/13 05:15:06;;;;;;;28.53;15.57;;;;;;;-141.28;100.00;50275.25;5135911;27;20464;-79
2022/10/13 05:17:35;;;;;;;28.53;15.10;;;;;;;-141.28;100.00;50171.22;5135534;27;20446;-78
2022/10/13 05:20:02;;;;;;;26.40;15.63;;;;;;;-141.28;100.00;50184.97;5135707;27;20444;-76
2022/10/13 05:22:29;;;;;;;24.50;15.30;;;;;;;-141.28;100.00;50157.50;5135535;27;20451;-76
2022/10/13 05:24:57;;;;;;;28.47;17.10;;;;;;;-141.28;100.00;50181.03;5135682;27;20478;-76
2022/10/13 05:27:28;;;;;;;33.80;16.83;;;;;;;-141.28;100.00;50159.44;5122100;27;20436;-78
2022/10/13 05:29:55;;;;;;;33.03;17.70;;;;;;;-141.28;100.00;50155.53;5135454;27;20444;-79
2022/10/13 05:32:21;;;;;;;33.63;20.00;;;;;;;-141.28;100.00;50184.97;5136175;27;20444;-77
2022/10/13 05:34:49;;;;;;;37.90;20.47;;;;;;;-141.28;100.00;50192.81;5135034;27;20456;-75
2022/10/13 05:37:17;;;;;;;38.23;18.90;;;;;;;-141.28;100.00;50090.75;5127027;27;20444;-77
2022/10/13 05:39:45;;;;;;;34.30;18.67;;;;;;;-141.28;100.00;50192.81;5131522;27;20447;-76
2022/10/13 05:42:13;;;;;;;29.93;19.57;;;;;;;-141.28;100.00;50177.13;5137232;27;20589;-73
2022/10/13 05:44:45;;;;;;;35.50;20.00;;;;;;;-141.28;100.00;50216.38;5135502;27;20226;-78
2022/10/13 05:47:12;;;;;;;39.47;22.53;;;;;;;-141.28;100.00;50228.16;5136656;27;20487;-76
2022/10/13 05:49:39;;;;;;;38.00;20.23;;;;;;;-141.28;100.00;49914.13;5136075;27;20224;-76
2022/10/13 05:52:10;;;;;;;34.30;19.70;;;;;;;-141.28;100.00;50340.03;5136107;27;20241;-78
2022/10/13 05:54:39;;;;;;;31.60;19.10;;;;;;;-141.28;100.00;50318.44;5135749;27;20424;-76
2022/10/13 05:57:21;;;;;;;38.30;19.17;;;;;;;-141.28;100.00;50363.56;5134981;27;20214;-76
2022/10/13 05:59:54;;;;;;;33.07;17.50;;;;;;;-141.28;100.00;50326.28;5134874;27;20440;-77
2022/10/13 06:02:24;;;;;;;31.90;17.13;;;;;;;-141.28;100.00;50381.25;5122087;27;20436;-75
2022/10/13 06:04:56;;;;;;;29.20;17.33;;;;;;;-141.28;100.00;50371.44;5134899;27;20234;-75
2022/10/13 06:07:24;;;;;;;30.73;16.73;;;;;;;-141.28;100.00;50412.66;5134308;27;20222;-78
2022/10/13 06:09:51;;;;;;;28.67;17.40;;;;;;;-141.28;100.00;50408.72;5134987;27;20206;-76
2022/10/13 06:12:19;;;;;;;27.80;17.53;;;;;;;-141.28;100.00;50424.44;5127274;27;20206;-76
2022/10/13 06:14:47;;;;;;;30.50;18.03;;;;;;;-141.28;100.00;50440.13;5134383;27;20857;-78
2022/10/13 06:17:16;;;;;;;26.93;17.30;;;;;;;-141.28;100.00;50495.09;5135152;27;20622;-77
2022/10/13 06:19:45;;;;;;;27.77;16.57;;;;;;;-141.28;100.00;50612.88;5134357;27;20218;-80
2022/10/13 06:22:12;;;;;;;27.60;17.23;;;;;;;-141.28;100.00;50624.63;5134668;27;20229;-76
2022/10/13 06:24:39;;;;;;;29.30;17.97;;;;;;;-141.28;100.00;50577.53;5133857;27;20226;-76
2022/10/13 06:27:06;;;;;;;29.33;17.93;;;;;;;-141.28;100.00;50495.09;5134100;27;20198;-75
2022/10/13 06:29:34;;;;;;;32.07;18.50;;;;;;;-141.28;100.00;50601.09;5133760;27;20661;-76
2022/10/13 06:32:02;;;;;;;30.77;17.33;;;;;;;-141.28;100.00;50632.50;5134340;27;20225;-75
2022/10/13 06:34:30;;;;;;;31.80;17.03;;;;;;;-141.28;100.00;50640.34;5134060;27;20278;-79
2022/10/13 06:36:57;;;;;;;25.87;17.27;;;;;;;-141.28;100.00;50661.94;5133977;27;20209;-79
2022/10/13 06:39:25;;;;;;;28.43;16.20;;;;;;;-141.28;100.00;50612.88;5133834;27;20195;-76
2022/10/13 06:41:53;;;;;;;25.20;15.27;;;;;;;-141.28;100.00;50526.50;5133971;27;20660;-79
2022/10/13 06:44:21;;;;;;;25.67;15.77;;;;;;;-141.28;100.00;50538.28;5134294;27;20210;-75
2022/10/13 06:46:48;;;;;;;28.27;16.67;;;;;;;-141.28;100.00;50616.78;5133595;27;20683;-76
2022/10/13 06:49:16;;;;;;;28.67;17.53;;;;;;;-141.28;100.00;50640.34;5137089;27;20677;-75
2022/10/13 06:51:45;;;;;;;32.13;18.07;;;;;;;-141.28;100.00;50711.00;5134720;27;20206;-79
2022/10/13 06:54:15;;;;;;;35.83;17.80;;;;;;;-141.28;100.00;50583.41;5135808;27;20240;-78
2022/10/13 06:56:42;;;;;;;34.33;17.23;;;;;;;-141.28;100.00;50628.56;5142185;27;20244;-75
2022/10/13 06:59:09;;;;;;;32.90;16.87;;;;;;;-141.28;100.00;50652.13;5139315;27;20206;-81
2022/10/13 07:01:37;;;;;;;39.83;18.50;;;;;;;-141.28;100.00;50675.69;5135213;27;20347;-77
2022/10/13 07:04:04;;;;;;;36.10;19.63;;;;;;;-141.28;100.00;50677.63;5136502;27;20206;-77
2022/10/13 07:06:31;;;;;;;35.77;18.77;;;;;;;-141.28;100.00;50667.81;5134426;27;20238;-77
2022/10/13 07:09:08;;;;;;;31.17;17.67;;;;;;;-141.28;100.00;50595.19;5133577;27;20728;-77
2022/10/13 07:11:35;;;;;;;33.13;18.83;;;;;;;-141.28;100.00;50491.16;5124712;27;20302;-78
2022/10/13 07:14:02;;;;;;;33.00;18.83;;;;;;;-141.28;100.00;50459.75;5130080;27;20281;-75
2022/10/13 07:16:29;;;;;;;35.63;18.67;;;;;;;-141.28;100.00;50444.06;5119588;27;20206;-76
2022/10/13 07:18:56;;;;;;;31.67;18.27;;;;;;;-141.28;100.00;50444.06;5133628;27;20634;-77
2022/10/13 07:21:23;;;;;;;34.77;17.93;;;;;;;-141.28;100.00;50477.44;5133323;27;20199;-77
2022/10/13 07:23:50;;;;;;;30.60;17.23;;;;;;;-141.28;100.00;50471.53;5133449;27;20235;-76
2022/10/13 07:26:19;;;;;;;35.10;18.37;;;;;;;-141.28;100.00;50483.31;5133021;27;20222;-78
2022/10/13 07:28:46;;;;;;;34.43;16.73;;;;;;;-141.28;100.00;50499.00;5133020;27;20637;-77
2022/10/13 07:31:15;;;;;;;30.67;17.87;;;;;;;-141.28;100.00;50526.50;5132761;27;20202;-79
2022/10/13 07:33:43;;;;;;;35.33;18.60;;;;;;;-141.28;100.00;50510.78;5132621;27;20201;-78
2022/10/13 07:36:11;;;;;;;41.80;18.27;;;;;;;-141.28;100.00;50563.78;5132890;27;20625;-78
2022/10/13 07:38:39;;;;;;;32.67;17.17;;;;;;;-141.28;100.00;50616.78;5131883;27;20194;-78
2022/10/13 07:41:08;;;;;;;32.17;18.13;;;;;;;-141.28;100.00;50601.09;5145215;27;20194;-76
2022/10/13 07:43:36;;;;;;;28.03;17.43;;;;;;;-141.28;100.00;50601.09;5154996;27;20188;-75
2022/10/13 07:46:04;;;;;;;39.93;19.03;;;;;;;-141.28;100.00;50561.81;5142975;27;20258;-76
2022/10/13 07:48:32;;;;;;;29.60;17.03;;;;;;;-141.28;100.00;50581.47;5134485;27;20237;-80
2022/10/13 07:51:02;;;;;;;30.60;16.97;;;;;;;-141.28;100.00;50630.53;5129382;27;20213;-77
2022/10/13 07:53:29;;;;;;;28.80;16.33;;;;;;;-141.28;100.00;50726.72;5123792;27;20198;-78
2022/10/13 07:56:00;;;;;;;26.17;16.83;;;;;;;-141.28;100.00;50781.69;5132714;27;20217;-76
2022/10/13 07:58:29;;;;;;;26.77;16.13;;;;;;;-141.28;100.00;50777.75;5132831;27;20286;-77
2022/10/13 08:00:59;;;;;;;26.63;16.20;;;;;;;-141.28;100.00;50805.25;5132500;27;20209;-77
2022/10/13 08:03:26;;;;;;;25.97;17.13;;;;;;;-141.28;100.00;50832.72;5132393;27;20699;-76
2022/10/13 08:05:54;;;;;;;33.47;16.97;;;;;;;-141.28;100.00;50895.53;5132259;28;20722;-77
2022/10/13 08:08:22;;;;;;;26.23;16.60;;;;;;;-141.28;100.00;50895.53;5131957;27;20201;-77
2022/10/13 08:10:49;;;;;;;28.03;17.20;;;;;;;-141.28;100.00;50840.56;5129740;28;20557;-76
2022/10/13 08:13:16;;;;;;;30.57;17.03;;;;;;;-141.28;100.00;50769.91;5123302;28;20250;-78
2022/10/13 08:15:45;;;;;;;22.53;15.43;;;;;;;-141.28;100.00;50809.16;5132326;28;20210;-76
2022/10/13 08:18:14;;;;;;;26.67;16.60;;;;;;;-141.28;100.00;50883.75;5132432;28;20206;-77
2022/10/13 08:20:42;;;;;;;27.10;15.97;;;;;;;-141.28;100.00;50885.72;5132240;28;20202;-77
2022/10/13 08:23:10;;;;;;;30.63;16.37;;;;;;;-141.28;100.00;50887.69;5132040;28;20206;-79
2022/10/13 08:25:38;;;;;;;23.07;15.47;;;;;;;-141.28;100.00;50981.91;5132131;28;20312;-78
2022/10/13 08:28:05;;;;;;;26.77;15.03;;;;;;;-141.28;100.00;51029.03;5131968;28;20259;-78
2022/10/13 08:30:32;;;;;;;28.13;15.10;;;;;;;-141.28;100.00;51036.88;5132012;28;20217;-77
2022/10/13 08:33:00;;;;;;;26.10;14.37;;;;;;;-141.28;100.00;51097.75;5131961;28;20555;-77
2022/10/13 08:35:29;;;;;;;24.93;15.03;;;;;;;-141.28;100.00;51217.50;5132155;28;20209;-77
2022/10/13 08:37:55;;;;;;;22.93;14.77;;;;;;;-141.28;100.00;51227.31;5132022;27;20671;-78
2022/10/13 08:40:23;;;;;;;23.13;14.80;;;;;;;-141.28;100.00;51237.13;5132025;28;20251;-76
2022/10/13 08:42:50;;;;;;;22.37;14.87;;;;;;;-141.28;100.00;51256.78;5131965;28;20206;-76
2022/10/13 08:45:21;;;;;;;25.70;15.33;;;;;;;-141.28;100.00;51323.53;5132091;28;20280;-81
2022/10/13 08:47:51;;;;;;;22.73;15.47;;;;;;;-141.28;100.00;51315.66;5132456;28;20661;-77
2022/10/13 08:50:23;;;;;;;18.13;13.43;;;;;;;-141.28;100.00;51563.06;5131656;28;20211;-78
2022/10/13 08:52:57;;;;;;;21.93;14.57;;;;;;;-141.28;100.00;51625.91;5132013;28;20198;-76
2022/10/13 08:55:31;;;;;;;21.93;13.17;;;;;;;-141.28;100.00;51555.22;5119873;28;20286;-76
2022/10/13 08:57:58;;;;;;;24.00;14.07;;;;;;;-141.28;100.00;51645.53;5132008;28;20240;-78
2022/10/13 09:00:25;;;;;;;23.03;13.77;;;;;;;-141.28;100.00;51733.88;5132158;28;20203;-77
2022/10/13 09:02:53;;;;;;;20.13;13.80;;;;;;;-141.28;100.00;51877.25;5118730;28;20211;-79
2022/10/13 09:05:32;;;;;;;24.63;13.30;;;;;;;-141.28;100.00;51924.38;5131983;28;20229;-77
2022/10/13 09:08:08;;;;;;;23.63;13.67;;;;;;;-141.28;100.00;52038.25;5131882;28;20234;-81
2022/10/13 09:10:48;;;;;;;21.43;14.03;;;;;;;-141.28;100.00;51979.34;5132206;28;20201;-77
2022/10/13 09:13:15;;;;;;;23.03;14.63;;;;;;;-141.28;100.00;51991.13;5122669;28;20210;-76
2022/10/13 09:15:46;;;;;;;20.83;13.27;;;;;;;-141.28;100.00;51936.16;5131480;28;20210;-78
2022/10/13 09:18:14;;;;;;;18.33;12.90;;;;;;;-141.28;100.00;51896.88;5131785;28;20657;-75
2022/10/13 09:20:41;;;;;;;21.70;13.93;;;;;;;-141.28;100.00;51940.06;5133639;27;20659;-79
2022/10/13 09:23:22;;;;;;;25.87;14.00;;;;;;;-141.28;100.00;51918.47;5135493;27;20625;-76
2022/10/13 09:25:52;;;;;;;20.77;13.63;;;;;;;-141.28;100.00;51900.81;5135343;27;20226;-76
2022/10/13 09:28:23;;;;;;;23.73;13.77;;;;;;;-141.28;100.00;51936.16;5135944;27;20202;-78
2022/10/13 09:31:03;;;;;;;18.90;12.50;;;;;;;-141.28;100.00;51995.06;5135404;27;20283;-79
2022/10/13 09:33:34;;;;;;;22.90;13.27;;;;;;;-141.28;100.00;52136.44;5134864;27;20256;-79
2022/10/13 09:36:14;;;;;;;27.20;13.73;;;;;;;-141.28;100.00;52222.88;5134913;27;20206;-76
2022/10/13 09:39:04;;;;;;;26.47;13.20;;;;;;;-141.28;100.00;52230.72;5134875;27;20651;-79
2022/10/13 09:41:33;;;;;;;20.80;13.30;;;;;;;-141.28;100.00;52271.97;5135855;27;20199;-77
2022/10/13 09:44:12;;;;;;;24.77;13.20;;;;;;;-141.28;100.00;52285.72;5122217;27;20651;-77
2022/10/13 09:46:58;;;;;;;23.17;12.20;;;;;;;-141.28;100.00;52385.88;5136949;27;20230;-76
2022/10/13 09:49:39;;;;;;;16.60;11.57;;;;;;;-141.28;100.00;52279.81;5135521;27;20752;-77
2022/10/13 09:52:16;;;;;;;19.50;11.27;;;;;;;-141.28;100.00;52134.50;5120049;27;20202;-80
2022/10/13 09:54:50;;;;;;;12.60;9.80;;;;;;;-141.28;100.00;52120.75;5135456;27;20664;-79
2022/10/13 09:57:28;;;;;;;15.23;10.57;;;;;;;-141.28;100.00;52042.19;5134748;27;20225;-77
2022/10/13 10:00:05;;;;;;;13.00;9.87;;;;;;;-141.28;100.00;51881.16;5134541;27;20235;-77
2022/10/13 10:02:35;;;;;;;18.87;10.40;;;;;;;-141.28;100.00;51812.44;5135136;27;20206;-76
2022/10/13 10:05:14;;;;;;;13.50;9.67;;;;;;;-141.28;100.00;51720.16;5134781;27;20569;-76
2022/10/13 10:07:44;;;;;;;20.40;9.30;;;;;;;-141.28;100.00;51480.59;5116080;27;20298;-77
2022/10/13 10:10:27;;;;;;;13.70;9.37;;;;;;;-141.28;100.00;51476.66;5133957;27;20190;-77
2022/10/13 10:12:54;;;;;;;17.27;9.10;;;;;;;-141.28;100.00;51496.31;5121959;27;20668;-80
2022/10/13 10:15:26;;;;;;;24.67;13.07;;;;;;;-141.28;100.00;51333.34;5133978;27;20234;-76
2022/10/13 10:17:58;;;;;;;13.47;9.47;;;;;;;-141.28;100.00;51370.66;5134607;27;20203;-77
2022/10/13 10:20:42;;;;;;;17.87;8.47;;;;;;;-141.28;100.00;51352.97;5134691;27;20195;-80
2022/10/13 10:23:17;;;;;;;18.10;9.50;;;;;;;-141.28;100.00;51188.06;5134259;27;20194;-79
2022/10/13 10:25:49;;;;;;;10.00;8.07;;;;;;;-141.28;100.00;51034.94;5134147;27;20225;-76
2022/10/13 10:28:36;;;;;;;13.97;8.43;;;;;;;-141.28;100.00;50926.94;5134263;27;20267;-78
2022/10/13 10:31:13;;;;;;;16.57;8.07;;;;;;;-141.28;100.00;50917.13;5137387;27;20683;-80
2022/10/13 10:33:53;;;;;;;12.57;8.50;;;;;;;-141.28;100.00;50871.97;5142280;27;20270;-75
2022/10/13 10:36:23;;;;;;;14.07;8.73;;;;;;;-141.28;100.00;50848.44;5143528;27;20214;-77
2022/10/13 10:38:54;;;;;;;15.63;8.57;;;;;;;-141.28;100.00;50883.75;5139661;27;20205;-77
2022/10/13 10:41:38;;;;;;;15.03;8.43;;;;;;;-141.28;100.00;50919.09;5136124;27;20206;-78
2022/10/13 10:44:12;;;;;;;10.87;8.13;;;;;;;-141.28;100.00;51052.59;5134888;27;20213;-77
2022/10/13 10:46:46;;;;;;;12.00;8.07;;;;;;;-141.28;100.00;51229.28;5134195;27;20225;-77
2022/10/13 10:49:19;;;;;;;15.73;8.10;;;;;;;-141.28;100.00;51221.44;5134317;27;20198;-76
2022/10/13 10:51:48;;;;;;;14.30;8.17;;;;;;;-141.28;100.00;51135.03;5133763;27;20289;-80
2022/10/13 10:54:26;;;;;;;13.77;7.50;;;;;;;-141.28;100.00;50954.44;5133985;27;20224;-77
2022/10/13 10:57:00;;;;;;;8.20;7.00;;;;;;;-141.28;100.00;50726.72;5133694;27;20230;-79
2022/10/13 10:59:43;;;;;;;10.70;7.03;;;;;;;-141.28;100.00;50449.94;5134203;27;20203;-78
2022/10/13 11:02:23;;;;;;;10.73;6.80;;;;;;;-141.28;100.00;50188.91;5134489;27;20210;-77
2022/10/13 11:04:54;;;;;;;9.43;6.33;;;;;;;-141.28;100.00;50424.44;5133734;27;20209;-76
2022/10/13 11:07:55;;;;;;;9.03;6.67;;;;;;;-141.28;100.00;50428.34;5133319;27;20289;-79
2022/10/13 11:10:25;;;;;;;8.57;6.07;;;;;;;-141.28;100.00;50377.31;5133855;27;20209;-77